M I D A S
Marine Information and Data Acquisition System
Tripno 730 of the Zeeleeuw from 2004-06-07 06:53:37 to 2004-06-07 15:48:18
Back to CruiseResearch ActivitiesStationsMapUnderway DataData graphs

EquipmentUnitsComment
TimeDGPSUTC
LatitudeDGPSDM.mWGS84
LongitudeDGPSDM.mWGS84
HeadingGyrodeg 
SOGDGPSknotsSpeed over ground
COGDGPSdegCourse over ground
DepthEcho soundermeters200 kHz
Missing or incorrect values are displayed as -999
Navigation data collected by the RV Zeeleeuw from 2004-06-07 06:53:37 to 2004-06-07 15:48:18
                                                                                    Next 1000 lines
Time Latitude Longitude Heading SOG COG Depth
2004-06-07 06:53:46 51°13.597 2°56.096 127.1   103 7.2
2004-06-07 06:53:51 51°13.597 2°56.097 126.3 0.1 151 7.1
2004-06-07 06:53:56 51°13.597 2°56.097 125.2 0.1 153 7.1
2004-06-07 06:54:00 51°13.597 2°56.097 123.9 0.1 167 7.2
2004-06-07 06:54:06 51°13.597 2°56.097 122.5 0.1 201 7.1
2004-06-07 06:54:11 51°13.597 2°56.097 121.2 0.1 196 7.1
2004-06-07 06:54:16 51°13.597 2°56.097 119.9 0.1 184 5.4
2004-06-07 06:54:20 51°13.596 2°56.096 118.5 0.1 211 7.2
2004-06-07 06:54:26 51°13.596 2°56.096 117.2 0.1 233 5.4
2004-06-07 06:54:31 51°13.596 2°56.096 116.2 0.2 264 7.2
2004-06-07 06:54:36 51°13.597 2°56.094 115.8 0.6 289 7.2
2004-06-07 06:54:40 51°13.597 2°56.092 115.5 1.2 286 7.3
2004-06-07 06:54:47 51°13.598 2°56.088 115.7 1.8 292 7.5
2004-06-07 06:54:51 51°13.599 2°56.084 116.2 2.2 291 8
2004-06-07 06:54:56 51°13.601 2°56.078 117.3 2.6 292 -999
2004-06-07 06:55:01 51°13.602 2°56.072 118.2 3.1 294 -999
2004-06-07 06:55:07 51°13.605 2°56.064 119.1 3.5 295 -999
2004-06-07 06:55:12 51°13.607 2°56.056 119.7 3.7 295 -999
2004-06-07 06:55:17 51°13.609 2°56.048 120.2 4 296 -999
2004-06-07 06:55:22 51°13.612 2°56.04 120.5 4.3 296 -999
2004-06-07 06:55:26 51°13.614 2°56.032 120.5 4.6 296 -999
2004-06-07 06:55:32 51°13.618 2°56.021 120.4 4.7 296 -999
2004-06-07 06:55:37 51°13.621 2°56.012 120.4 4.9 295 -999
2004-06-07 06:55:42 51°13.624 2°56.002 120.4 5 296 -999
2004-06-07 06:55:47 51°13.627 2°55.991 120.6 5.2 295 -999
2004-06-07 06:55:52 51°13.63 2°55.981 121 5.3 296 -999
2004-06-07 06:55:57 51°13.633 2°55.97 121.6 5.4 296 -999
2004-06-07 06:56:00 51°13.636 2°55.963 122 5.5 297 -999
2004-06-07 06:56:07 51°13.641 2°55.948 122.3 5.5 298 -999
2004-06-07 06:56:12 51°13.644 2°55.938 122.5 5.5 299 -999
2004-06-07 06:56:17 51°13.648 2°55.927 122.5 5.5 298 -999
2004-06-07 06:56:22 51°13.651 2°55.916 121.9 5.6 298 -999
2004-06-07 06:56:27 51°13.655 2°55.905 121.2 5.6 297 -999
2004-06-07 06:56:31 51°13.658 2°55.896 119.8 5.6 297 -999
2004-06-07 06:56:36 51°13.661 2°55.885 118.1 5.6 295 -999
2004-06-07 06:56:42 51°13.665 2°55.871 116.2 5.6 294 -999
2004-06-07 06:56:47 51°13.667 2°55.86 114 5.6 291 -999
2004-06-07 06:56:52 51°13.67 2°55.848 111.8 5.6 290 -999
2004-06-07 06:56:57 51°13.672 2°55.836 109.4 5.6 288 -999
2004-06-07 06:57:02 51°13.674 2°55.824 107 5.6 287 -999
2004-06-07 06:57:07 51°13.676 2°55.813 104.5 5.5 285 -999
2004-06-07 06:57:11 51°13.677 2°55.804 102.7 5.2 282 -999
2004-06-07 06:57:16 51°13.678 2°55.794 100.8 4.9 281 -999
2004-06-07 06:57:22 51°13.679 2°55.783 98.7 4.2 279 -999
2004-06-07 06:57:26 51°13.68 2°55.777 96.7 3.4 278 12
2004-06-07 06:57:31 51°13.68 2°55.771 94.5 2.9 277 12.1
2004-06-07 06:57:36 51°13.68 2°55.766 91.4 2.3 275 4.9
2004-06-07 06:57:41 51°13.68 2°55.762 87.1 1.8 276 -999
2004-06-07 06:57:46 51°13.68 2°55.76 83 1 281 -999
2004-06-07 06:57:51 51°13.681 2°55.759 78.1 0.6 292 -999
2004-06-07 06:57:56 51°13.682 2°55.758 73.5 0.5 352 12.9
2004-06-07 06:58:00 51°13.682 2°55.759 69.2 0.5 11 13.3
2004-06-07 06:58:06 51°13.684 2°55.761 63.3 1.4 32 13.4
2004-06-07 06:58:11 51°13.686 2°55.763 56.3 1.9 35 13.5
2004-06-07 06:58:16 51°13.689 2°55.766 48.1 2.3 31 13.8
2004-06-07 06:58:22 51°13.693 2°55.769 41.3 2.5 26 14
2004-06-07 06:58:26 51°13.696 2°55.77 32.5 2.7 22 14.1
2004-06-07 06:58:31 51°13.699 2°55.772 26.2 2.5 14 14
2004-06-07 06:58:35 51°13.701 2°55.772 22.5 2.2 13 13.6
2004-06-07 06:58:41 51°13.704 2°55.773 19.7 1.3 11 13.8
2004-06-07 06:58:46 51°13.704 2°55.773 16.5 0.6 6 13.7
2004-06-07 06:58:51 51°13.704 2°55.773 14.4 0.1 345 13.7
2004-06-07 06:58:56 51°13.704 2°55.773 13.2 0.3 186 13.7
2004-06-07 06:59:01 51°13.702 2°55.773 12.6 0.8 190 13.8
2004-06-07 06:59:06 51°13.7 2°55.773 12.3 1.3 188 -999
2004-06-07 06:59:12 51°13.697 2°55.772 12.3 1.9 190 -999
2004-06-07 06:59:17 51°13.694 2°55.771 12.3 2 188 -999
2004-06-07 06:59:22 51°13.692 2°55.77 12.8 2 191 -999
2004-06-07 06:59:27 51°13.69 2°55.77 13 1.3 191 -999
2004-06-07 06:59:31 51°13.689 2°55.769 11.2 0.8 198 -999
2004-06-07 06:59:36 51°13.689 2°55.769 6.3 0.2 317 -999
2004-06-07 06:59:42 51°13.691 2°55.768 1.8 0.8 337 -999
2004-06-07 06:59:47 51°13.693 2°55.767 353.9 1.6 340 -999
2004-06-07 06:59:52 51°13.696 2°55.765 348.2 2.1 337 -999
2004-06-07 06:59:56 51°13.698 2°55.763 340.1 2.8 332 -999
2004-06-07 07:00:02 51°13.703 2°55.758 335.9 3.3 330 -999
2004-06-07 07:00:07 51°13.708 2°55.754 333.7 4 327 -999
2004-06-07 07:00:12 51°13.713 2°55.748 332.4 4.4 327 -999
2004-06-07 07:00:16 51°13.718 2°55.743 331.6 4.7 326 12.3
2004-06-07 07:00:20 51°13.722 2°55.739 331.1 4.8 325 11.1
2004-06-07 07:00:26 51°13.729 2°55.731 330.9 5 325 10.6
2004-06-07 07:00:31 51°13.735 2°55.725 330.5 4.9 325 10.6
2004-06-07 07:00:36 51°13.74 2°55.718 330.5 4.9 325 10.3
2004-06-07 07:00:40 51°13.745 2°55.713 330.4 5 324 10.2
2004-06-07 07:00:46 51°13.752 2°55.706 330.7 5 325 10.1
2004-06-07 07:00:51 51°13.757 2°55.699 331.3 5.2 326 9.9
2004-06-07 07:00:56 51°13.764 2°55.693 332.3 5.2 327 9.8
2004-06-07 07:01:00 51°13.768 2°55.688 333.1 5.3 328 9.8
2004-06-07 07:01:06 51°13.776 2°55.68 334.2 5.4 329 9.9
2004-06-07 07:01:11 51°13.783 2°55.674 335.4 5.6 330 9.8
2004-06-07 07:01:16 51°13.79 2°55.668 336.8 5.7 331 10.3
2004-06-07 07:01:20 51°13.796 2°55.664 338 5.8 333 10.2
2004-06-07 07:01:26 51°13.805 2°55.657 339.3 6 334 10.2
2004-06-07 07:01:31 51°13.813 2°55.651 340.4 6.2 336 10.4
2004-06-07 07:01:36 51°13.82 2°55.646 341.2 6.1 336 10.2
2004-06-07 07:01:40 51°13.827 2°55.641 341.3 6.3 336 10.2
2004-06-07 07:01:46 51°13.837 2°55.634 341 6.5 336 10.3
2004-06-07 07:01:51 51°13.845 2°55.628 340.6 6.7 335 9.7
2004-06-07 07:01:56 51°13.854 2°55.622 340.4 6.7 335 9.6
2004-06-07 07:02:01 51°13.863 2°55.615 340.4 6.9 335 10.1
2004-06-07 07:02:06 51°13.872 2°55.609 340.8 7 335 10.1
2004-06-07 07:02:11 51°13.881 2°55.602 341.4 7.2 336 9.8
2004-06-07 07:02:16 51°13.89 2°55.596 342.1 7.3 336 9.8
2004-06-07 07:02:21 51°13.899 2°55.59 342.5 7.4 337 9.8
2004-06-07 07:02:26 51°13.909 2°55.583 342.7 7.5 337 10.1
2004-06-07 07:02:31 51°13.918 2°55.577 342.9 7.5 337 10
2004-06-07 07:02:36 51°13.928 2°55.57 343.4 7.6 338 10.5
2004-06-07 07:02:41 51°13.938 2°55.564 344 7.6 338 10.5
2004-06-07 07:02:46 51°13.947 2°55.558 344.2 7.7 338 11.2
2004-06-07 07:02:51 51°13.957 2°55.551 344.2 7.7 338 11.1
2004-06-07 07:02:56 51°13.967 2°55.545 343.7 7.7 338 10.8
2004-06-07 07:03:01 51°13.977 2°55.538 342.9 7.7 337 11.1
2004-06-07 07:03:05 51°13.985 2°55.533 342.6 7.8 337 11.6
2004-06-07 07:03:10 51°13.995 2°55.526 342.6 7.8 337 11.9
2004-06-07 07:03:15 51°14.005 2°55.519 342.6 7.8 337 11.5
2004-06-07 07:03:21 51°14.017 2°55.51 342 7.9 336 11.3
2004-06-07 07:03:26 51°14.027 2°55.503 341.8 7.9 336 11.2
2004-06-07 07:03:31 51°14.037 2°55.496 341.8 7.9 336 11.5
2004-06-07 07:03:36 51°14.047 2°55.489 341.8 8 336 11.4
2004-06-07 07:03:41 51°14.057 2°55.482 341.6 8 335 11.3
2004-06-07 07:03:46 51°14.067 2°55.474 341.1 8 335 11.5
2004-06-07 07:03:51 51°14.078 2°55.466 340.5 8.3 335 11.5
2004-06-07 07:03:56 51°14.088 2°55.458 340.4 8.4 335 11.5
2004-06-07 07:04:00 51°14.097 2°55.452 340.4 8.7 335 11.5
2004-06-07 07:04:06 51°14.11 2°55.442 340.5 8.9 334 11.7
2004-06-07 07:04:11 51°14.122 2°55.433 340 9 334 11.4
2004-06-07 07:04:16 51°14.133 2°55.424 339.6 9 334 11.5
2004-06-07 07:04:21 51°14.144 2°55.414 339.1 9.1 333 11.5
2004-06-07 07:04:26 51°14.155 2°55.404 337.8 9.2 332 11.5
2004-06-07 07:04:31 51°14.167 2°55.394 335.8 9.4 329 11.6
2004-06-07 07:04:36 51°14.178 2°55.382 334.7 9.6 329 11.6
2004-06-07 07:04:41 51°14.19 2°55.37 333.6 9.8 328 11.6
2004-06-07 07:04:46 51°14.201 2°55.358 332.1 10 326 11.5
2004-06-07 07:04:51 51°14.212 2°55.344 330.5 10.1 323 11.6
2004-06-07 07:04:56 51°14.223 2°55.33 328.7 10.1 323 11.6
2004-06-07 07:05:01 51°14.234 2°55.316 327.1 10.2 320 11.6
2004-06-07 07:05:07 51°14.247 2°55.296 324.4 10.4 316 11.6
2004-06-07 07:05:11 51°14.255 2°55.283 321.8 10.4 314 11.7
2004-06-07 07:05:16 51°14.265 2°55.266 319.7 10.4 314 11.8
2004-06-07 07:05:19 51°14.271 2°55.256 318.2 10.7 312 11.6
2004-06-07 07:05:26 51°14.284 2°55.23 317.2 10.8 311 11.6
2004-06-07 07:05:31 51°14.294 2°55.211 316 11.1 309 11.7
2004-06-07 07:05:36 51°14.304 2°55.192 315.3 11.3 309 11.6
2004-06-07 07:05:41 51°14.314 2°55.172 315.3 11.5 309 11.5
2004-06-07 07:05:46 51°14.324 2°55.153 315.7 11.7 310 11.6
2004-06-07 07:05:51 51°14.335 2°55.132 315.8 11.8 309 11.3
2004-06-07 07:05:56 51°14.345 2°55.112 315.3 11.8 309 11
2004-06-07 07:06:00 51°14.353 2°55.095 315 12.3 309 10.6
2004-06-07 07:06:06 51°14.367 2°55.069 315 12.5 310 10.9
2004-06-07 07:06:11 51°14.378 2°55.048 316.2 12.7 311 11.1
2004-06-07 07:06:16 51°14.39 2°55.027 317.9 12.8 312 11.1
2004-06-07 07:06:22 51°14.404 2°55.001 318.6 13 312 11
2004-06-07 07:06:26 51°14.414 2°54.983 318.9 13.1 311 10.9
2004-06-07 07:06:31 51°14.426 2°54.961 318.9 13.2 311 10.8
2004-06-07 07:06:36 51°14.439 2°54.939 318.9 13.3 311 10.9
2004-06-07 07:06:40 51°14.448 2°54.921 319.3 13.4 311 10.6
2004-06-07 07:06:46 51°14.463 2°54.894 320 13.4 311 10.6
2004-06-07 07:06:51 51°14.475 2°54.872 320 13.5 310 10.3
2004-06-07 07:06:56 51°14.487 2°54.849 319.7 13.5 310 10.4
2004-06-07 07:07:00 51°14.497 2°54.831 321 13.5 312 10.3
2004-06-07 07:07:06 51°14.513 2°54.805 321.8 13.5 312 10.3
2004-06-07 07:07:11 51°14.526 2°54.784 322.7 13.5 314 10.2
2004-06-07 07:07:16 51°14.539 2°54.763 323.7 13.5 315 10.2
2004-06-07 07:07:21 51°14.552 2°54.742 324.6 13.5 315 10.2
2004-06-07 07:07:24 51°14.56 2°54.729 324.7 13.5 315 10.1
2004-06-07 07:07:31 51°14.579 2°54.7 325 13.4 316 10.1
2004-06-07 07:07:36 51°14.592 2°54.68 325.6 13.4 317 9.9
2004-06-07 07:07:41 51°14.606 2°54.66 325.9 13.4 317 9.8
2004-06-07 07:07:46 51°14.62 2°54.64 326.3 13.4 318 9.8
2004-06-07 07:07:51 51°14.634 2°54.621 326.9 13.4 318 9.8
2004-06-07 07:07:56 51°14.648 2°54.601 327.3 13.4 319 9.7
2004-06-07 07:07:59 51°14.656 2°54.59 327.8 13.4 320 9.8
2004-06-07 07:08:06 51°14.676 2°54.563 328.2 13.3 319 9.8
2004-06-07 07:08:11 51°14.69 2°54.544 328.7 13.3 320 9.8
2004-06-07 07:08:16 51°14.704 2°54.524 328.1 13.4 319 9.9
2004-06-07 07:08:20 51°14.715 2°54.509 327 13.4 318 9.9
2004-06-07 07:08:26 51°14.731 2°54.485 326.6 13.4 318 10
2004-06-07 07:08:31 51°14.745 2°54.465 326.2 13.4 318 9.9
2004-06-07 07:08:36 51°14.759 2°54.446 326.4 13.4 318 9.9
2004-06-07 07:08:40 51°14.77 2°54.43 327 13.4 319 9.9
2004-06-07 07:08:46 51°14.787 2°54.407 327.1 13.4 319 9.8
2004-06-07 07:08:51 51°14.8 2°54.387 326.6 13.4 318 9.7
2004-06-07 07:08:56 51°14.814 2°54.367 326.1 13.4 318 9.7
2004-06-07 07:09:00 51°14.825 2°54.352 326.3 13.3 319 9.7
2004-06-07 07:09:06 51°14.842 2°54.329 327.1 13.4 320 9.5
2004-06-07 07:09:11 51°14.856 2°54.31 327.5 13.3 320 9.4
2004-06-07 07:09:16 51°14.871 2°54.292 328.6 13.3 321 9.2
2004-06-07 07:09:20 51°14.882 2°54.277 328.9 13.3 321 9.2
2004-06-07 07:09:26 51°14.899 2°54.255 329.2 13.2 321 9
2004-06-07 07:09:31 51°14.913 2°54.236 329.1 13.3 320 9
2004-06-07 07:09:36 51°14.927 2°54.217 328.2 13.3 320 8.9
2004-06-07 07:09:40 51°14.938 2°54.201 327 13.2 318 8.8
2004-06-07 07:09:46 51°14.954 2°54.177 325.8 13.2 317 8.8
2004-06-07 07:09:51 51°14.968 2°54.157 325 13.2 317 8.8
2004-06-07 07:09:56 51°14.981 2°54.137 324.6 13.3 317 8.8
2004-06-07 07:10:00 51°14.992 2°54.121 324.4 13.3 317 8.8
2004-06-07 07:10:06 51°15.008 2°54.097 324.3 13.3 317 8.8
2004-06-07 07:10:11 51°15.021 2°54.076 324.4 13.4 317 8.9
2004-06-07 07:10:16 51°15.035 2°54.056 324.2 13.4 317 9
2004-06-07 07:10:21 51°15.048 2°54.035 323.7 13.4 316 9
2004-06-07 07:10:26 51°15.061 2°54.015 323.2 13.4 316 9.1
2004-06-07 07:10:31 51°15.075 2°53.994 324.1 13.5 317 9.2
2004-06-07 07:10:36 51°15.089 2°53.974 324.4 13.5 317 9.2
2004-06-07 07:10:41 51°15.103 2°53.954 324.4 13.5 317 9.3
2004-06-07 07:10:46 51°15.117 2°53.934 324.6 13.5 317 9.3
2004-06-07 07:10:51 51°15.13 2°53.913 324.6 13.5 317 9.4
2004-06-07 07:10:56 51°15.144 2°53.893 324.6 13.5 316 9.4
2004-06-07 07:11:01 51°15.157 2°53.871 323.5 13.5 314 9.4
2004-06-07 07:11:06 51°15.169 2°53.849 322.1 13.4 312 9.5
2004-06-07 07:11:11 51°15.182 2°53.827 320.4 13.5 311 9.5
2004-06-07 07:11:16 51°15.194 2°53.805 319.4 13.5 311 9.5
2004-06-07 07:11:20 51°15.204 2°53.787 319 13.4 311 9.6
2004-06-07 07:11:26 51°15.218 2°53.76 318.9 13.4 311 9.6
2004-06-07 07:11:31 51°15.231 2°53.737 319.1 13.5 311 9.7
2004-06-07 07:11:36 51°15.243 2°53.715 319.5 13.5 312 9.8
2004-06-07 07:11:40 51°15.253 2°53.697 319.9 13.5 312 9.8
2004-06-07 07:11:46 51°15.268 2°53.671 320.3 13.5 313 10
2004-06-07 07:11:51 51°15.281 2°53.649 320.8 13.5 314 10
2004-06-07 07:11:56 51°15.294 2°53.628 321.5 13.5 314 9.9
2004-06-07 07:12:00 51°15.305 2°53.611 322.1 13.5 314 10
2004-06-07 07:12:06 51°15.32 2°53.585 322.3 13.5 313 10.1
2004-06-07 07:12:11 51°15.333 2°53.563 321.5 13.5 313 10.1
2004-06-07 07:12:16 51°15.346 2°53.541 320.8 13.5 313 10.2
2004-06-07 07:12:19 51°15.353 2°53.528 320.6 13.5 313 10.2
2004-06-07 07:12:26 51°15.371 2°53.498 320.8 13.5 313 10.3
2004-06-07 07:12:31 51°15.384 2°53.476 321.3 13.5 314 10.4
2004-06-07 07:12:36 51°15.397 2°53.455 321.5 13.5 314 10.4
2004-06-07 07:12:41 51°15.41 2°53.434 321.9 13.4 314 10.4
2004-06-07 07:12:46 51°15.423 2°53.413 322.3 13.4 314 10.5
2004-06-07 07:12:51 51°15.437 2°53.392 322.9 13.4 315 10.6
2004-06-07 07:12:56 51°15.45 2°53.371 323.2 13.4 315 10.7
2004-06-07 07:13:01 51°15.463 2°53.35 323.2 13.4 315 10.8
2004-06-07 07:13:06 51°15.476 2°53.329 323.4 13.4 315 11
2004-06-07 07:13:11 51°15.489 2°53.307 321.6 13.4 312 10.9
2004-06-07 07:13:16 51°15.501 2°53.285 320 13.4 312 11
2004-06-07 07:13:21 51°15.513 2°53.262 318.9 13.4 310 11
2004-06-07 07:13:26 51°15.524 2°53.24 317.9 13.4 310 11.1
2004-06-07 07:13:31 51°15.536 2°53.217 317.1 13.3 309 11.1
2004-06-07 07:13:36 51°15.548 2°53.194 316.8 13.3 309 11.2
2004-06-07 07:13:41 51°15.559 2°53.171 316.6 13.3 309 11.1
2004-06-07 07:13:46 51°15.571 2°53.148 316.6 13.4 309 11.2
2004-06-07 07:13:51 51°15.582 2°53.124 316.9 13.4 309 11.3
2004-06-07 07:13:56 51°15.594 2°53.102 317.1 13.4 309 11.3
2004-06-07 07:14:01 51°15.606 2°53.079 317.1 13.4 309 11.3
2004-06-07 07:14:06 51°15.617 2°53.055 317.1 13.4 309 11.4
2004-06-07 07:14:11 51°15.629 2°53.032 317.1 13.4 308 11.4
2004-06-07 07:14:16 51°15.64 2°53.009 316.7 13.4 308 11.5
2004-06-07 07:14:21 51°15.65 2°52.984 314.7 13.4 304 11.5
2004-06-07 07:14:26 51°15.66 2°52.959 311.7 13.4 303 11.6
2004-06-07 07:14:31 51°15.669 2°52.933 309.9 13.4 300 11.6
2004-06-07 07:14:36 51°15.678 2°52.907 307 13.4 297 11.7
2004-06-07 07:14:41 51°15.685 2°52.88 303.7 13.4 294 11.7
2004-06-07 07:14:46 51°15.692 2°52.852 301.2 13.4 293 11.7
2004-06-07 07:14:51 51°15.699 2°52.825 298.8 13.4 291 11.8
2004-06-07 07:14:56 51°15.705 2°52.797 297.5 13.4 290 11.8
2004-06-07 07:15:01 51°15.711 2°52.769 295.8 13.4 289 11.9
2004-06-07 07:15:06 51°15.716 2°52.74 293.2 13.4 286 12
2004-06-07 07:15:11 51°15.721 2°52.711 291 13.5 284 12
2004-06-07 07:15:16 51°15.725 2°52.682 289.2 13.5 283 12
2004-06-07 07:15:21 51°15.729 2°52.653 288.3 13.5 282 12
2004-06-07 07:15:24 51°15.731 2°52.635 287.4 13.5 282 12.1
2004-06-07 07:15:31 51°15.736 2°52.594 287 13.5 282 12
2004-06-07 07:15:36 51°15.739 2°52.565 286.6 13.6 281 12.1
2004-06-07 07:15:40 51°15.742 2°52.541 286.5 13.6 281 12.1
2004-06-07 07:15:45 51°15.746 2°52.512 286.5 13.6 281 12.2
2004-06-07 07:15:51 51°15.75 2°52.476 286.5 13.6 281 12.2
2004-06-07 07:15:56 51°15.754 2°52.446 286.5 13.6 281 12.3
2004-06-07 07:16:01 51°15.757 2°52.417 286.6 13.6 280 12.3
2004-06-07 07:16:06 51°15.759 2°52.387 285 13.6 280 12.3
2004-06-07 07:16:11 51°15.76 2°52.357 280.9 13.5 273 12.3
2004-06-07 07:16:16 51°15.76 2°52.328 277.1 13.5 271 12.3
2004-06-07 07:16:21 51°15.759 2°52.298 273.7 13.5 268 12.4
2004-06-07 07:16:27 51°15.757 2°52.262 271.6 13.5 265 12.4
2004-06-07 07:16:31 51°15.756 2°52.238 269.4 13.6 264 12.4
2004-06-07 07:16:37 51°15.753 2°52.202 267.9 13.6 263 12.4
2004-06-07 07:16:42 51°15.751 2°52.172 267.2 13.6 263 12.4
2004-06-07 07:16:47 51°15.748 2°52.143 266.7 13.6 262 12.4
2004-06-07 07:16:52 51°15.745 2°52.113 266 13.6 262 12.5
2004-06-07 07:16:57 51°15.742 2°52.083 265.5 13.6 262 12.5
2004-06-07 07:16:59 51°15.741 2°52.071 265.5 13.7 262 12.5
2004-06-07 07:17:07 51°15.737 2°52.023 265.8 13.6 262 12.5
2004-06-07 07:17:11 51°15.735 2°51.999 266.3 13.6 263 12.5
2004-06-07 07:17:17 51°15.733 2°51.964 266.8 13.6 263 12.5
2004-06-07 07:17:22 51°15.731 2°51.934 267 13.7 263 12.5
2004-06-07 07:17:27 51°15.729 2°51.904 267.4 13.6 264 12.5
2004-06-07 07:17:32 51°15.726 2°51.874 267.5 13.7 263 12.6
2004-06-07 07:17:37 51°15.724 2°51.844 267.6 13.7 263 12.6
2004-06-07 07:17:41 51°15.723 2°51.82 267.6 13.7 263 12.6
2004-06-07 07:17:47 51°15.72 2°51.784 267.8 13.7 264 12.6
2004-06-07 07:17:51 51°15.719 2°51.76 268.3 13.7 264 12.6
2004-06-07 07:17:56 51°15.717 2°51.73 268.3 13.7 264 12.6
2004-06-07 07:18:01 51°15.715 2°51.7 268.5 13.7 264 12.6
2004-06-07 07:18:07 51°15.713 2°51.664 268.6 13.7 265 12.7
2004-06-07 07:18:12 51°15.711 2°51.634 268.6 13.7 264 12.7
2004-06-07 07:18:17 51°15.71 2°51.604 268.6 13.7 265 12.7
2004-06-07 07:18:21 51°15.708 2°51.58 268.5 13.7 264 12.7
2004-06-07 07:18:27 51°15.706 2°51.544 268.6 13.7 265 12.8
2004-06-07 07:18:31 51°15.705 2°51.52 268.9 13.7 265 12.8
2004-06-07 07:18:35 51°15.704 2°51.495 269 13.6 265 12.8
2004-06-07 07:18:41 51°15.702 2°51.46 268.7 13.6 264 12.8
2004-06-07 07:18:47 51°15.699 2°51.424 268.5 13.6 264 12.8
2004-06-07 07:18:52 51°15.697 2°51.394 268.3 13.6 264 12.8
2004-06-07 07:18:57 51°15.694 2°51.364 267.1 13.6 262 12.8
2004-06-07 07:19:01 51°15.691 2°51.34 264.4 13.6 259 12.8
2004-06-07 07:19:07 51°15.686 2°51.305 262.5 13.6 259 12.9
2004-06-07 07:19:11 51°15.683 2°51.282 260.7 13.6 256 12.8
2004-06-07 07:19:16 51°15.678 2°51.253 259.4 13.6 255 12.9
2004-06-07 07:19:21 51°15.673 2°51.224 258.7 13.6 255 12.9
2004-06-07 07:19:27 51°15.667 2°51.189 258 13.6 254 12.8
2004-06-07 07:19:30 51°15.664 2°51.172 257.8 13.6 255 12.9
2004-06-07 07:19:37 51°15.657 2°51.131 257.8 13.6 254 12.9
2004-06-07 07:19:42 51°15.652 2°51.102 257.9 13.6 255 12.9
2004-06-07 07:19:47 51°15.647 2°51.073 258.5 13.6 256 12.9
2004-06-07 07:19:52 51°15.642 2°51.043 258.9 13.6 256 12.9
2004-06-07 07:19:57 51°15.637 2°51.014 259 13.6 256 12.9
2004-06-07 07:20:01 51°15.634 2°50.991 258.8 13.6 255 12.9
2004-06-07 07:20:07 51°15.628 2°50.956 258.4 13.6 255 12.9
2004-06-07 07:20:12 51°15.623 2°50.927 258.3 13.6 256 12.9
2004-06-07 07:20:15 51°15.62 2°50.91 258.4 13.6 256 12.9
2004-06-07 07:20:21 51°15.615 2°50.874 258.8 13.6 256 12.8
2004-06-07 07:20:27 51°15.609 2°50.839 259 13.6 256 12.9
2004-06-07 07:20:31 51°15.605 2°50.816 259.1 13.6 256 12.8
2004-06-07 07:20:37 51°15.6 2°50.781 259.1 13.6 256 12.9
2004-06-07 07:20:42 51°15.595 2°50.752 259.1 13.6 256 12.9
2004-06-07 07:20:47 51°15.59 2°50.723 259.1 13.6 256 12.8
2004-06-07 07:20:52 51°15.585 2°50.694 258.8 13.6 255 12.9
2004-06-07 07:20:57 51°15.58 2°50.664 258.8 13.6 255 12.9
2004-06-07 07:21:01 51°15.577 2°50.641 258.5 13.6 255 12.9
2004-06-07 07:21:07 51°15.57 2°50.606 258.5 13.7 254 12.9
2004-06-07 07:21:11 51°15.567 2°50.583 258.4 13.7 256 12.9
2004-06-07 07:21:17 51°15.561 2°50.548 259 13.7 256 12.9
2004-06-07 07:21:23 51°15.556 2°50.513 259.4 13.7 256 12.9
2004-06-07 07:21:27 51°15.552 2°50.489 259.7 13.7 256 12.9
2004-06-07 07:21:32 51°15.547 2°50.46 259.8 13.7 256 12.9
2004-06-07 07:21:37 51°15.543 2°50.43 259.8 13.7 256 12.9
2004-06-07 07:21:41 51°15.539 2°50.407 259.7 13.7 256 12.9
2004-06-07 07:21:47 51°15.533 2°50.372 259.4 13.7 256 12.9
2004-06-07 07:21:51 51°15.53 2°50.349 259.2 13.7 256 12.9
2004-06-07 07:21:57 51°15.524 2°50.313 259.1 13.7 256 13
2004-06-07 07:22:02 51°15.519 2°50.284 259.4 13.7 256 12.9
2004-06-07 07:22:07 51°15.515 2°50.255 259.6 13.7 257 12.9
2004-06-07 07:22:12 51°15.511 2°50.225 260.5 13.6 258 12.9
2004-06-07 07:22:17 51°15.507 2°50.195 261.1 13.7 258 12.9
2004-06-07 07:22:22 51°15.504 2°50.166 262 13.6 259 12.9
2004-06-07 07:22:27 51°15.5 2°50.136 262.2 13.7 258 12.9
2004-06-07 07:22:31 51°15.497 2°50.112 262.4 13.7 259 12.9
2004-06-07 07:22:37 51°15.493 2°50.077 262.6 13.7 259 12.9
2004-06-07 07:22:39 51°15.491 2°50.065 262.7 13.7 259 12.9
2004-06-07 07:22:47 51°15.485 2°50.018 262.4 13.7 258 12.9
2004-06-07 07:22:51 51°15.482 2°49.994 262 13.7 258 12.8
2004-06-07 07:22:57 51°15.477 2°49.958 261.7 13.7 259 12.9
2004-06-07 07:23:02 51°15.474 2°49.929 261.9 13.7 259 12.9
2004-06-07 07:23:07 51°15.47 2°49.899 262 13.7 259 12.9
2004-06-07 07:23:12 51°15.466 2°49.869 262.2 13.7 259 12.9
2004-06-07 07:23:17 51°15.462 2°49.839 262.5 13.7 259 13
2004-06-07 07:23:21 51°15.459 2°49.816 262.4 13.7 259 12.9
2004-06-07 07:23:27 51°15.455 2°49.78 261.9 13.7 258 12.9
2004-06-07 07:23:31 51°15.452 2°49.757 261.5 13.7 258 12.9
2004-06-07 07:23:37 51°15.447 2°49.721 261.7 13.7 258 12.9
2004-06-07 07:23:41 51°15.444 2°49.697 261.7 13.7 259 12.8
2004-06-07 07:23:47 51°15.439 2°49.662 262.2 13.7 259 12.8
2004-06-07 07:23:51 51°15.436 2°49.638 262.3 13.7 259 12.9
2004-06-07 07:23:57 51°15.432 2°49.602 262.6 13.7 259 12.9
2004-06-07 07:24:02 51°15.428 2°49.572 262.7 13.7 259 12.9
2004-06-07 07:24:07 51°15.425 2°49.542 262.6 13.7 259 12.8
2004-06-07 07:24:12 51°15.421 2°49.513 262.6 13.7 258 12.9
2004-06-07 07:24:17 51°15.417 2°49.483 262.1 13.7 258 12.9
2004-06-07 07:24:22 51°15.413 2°49.453 261.7 13.7 258 12.8
2004-06-07 07:24:27 51°15.409 2°49.424 261.7 13.7 258 12.9
2004-06-07 07:24:31 51°15.406 2°49.4 262.1 13.7 259 12.9
2004-06-07 07:24:37 51°15.402 2°49.364 262.2 13.7 259 12.8
2004-06-07 07:24:42 51°15.398 2°49.335 262.6 13.7 259 12.9
2004-06-07 07:24:47 51°15.395 2°49.305 262.7 13.7 259 12.9
2004-06-07 07:24:51 51°15.392 2°49.281 262.7 13.7 259 12.9
2004-06-07 07:24:57 51°15.387 2°49.245 262.5 13.7 259 12.8
2004-06-07 07:25:02 51°15.383 2°49.216 262.2 13.7 258 12.8
2004-06-07 07:25:07 51°15.38 2°49.186 262.1 13.7 258 12.9
2004-06-07 07:25:11 51°15.377 2°49.162 262 13.7 258 12.8
2004-06-07 07:25:17 51°15.372 2°49.127 262 13.7 259 12.9
2004-06-07 07:25:21 51°15.369 2°49.103 262 13.7 258 12.9
2004-06-07 07:25:27 51°15.364 2°49.068 262.1 13.7 258 12.9
2004-06-07 07:25:31 51°15.361 2°49.044 262.1 13.8 258 12.9
2004-06-07 07:25:36 51°15.357 2°49.014 262.1 13.8 258 12.9
2004-06-07 07:25:40 51°15.354 2°48.99 262.2 13.7 258 12.8
2004-06-07 07:25:47 51°15.349 2°48.948 262 13.8 259 12.9
2004-06-07 07:25:52 51°15.345 2°48.919 262.2 13.8 258 12.8
2004-06-07 07:25:57 51°15.341 2°48.889 262.3 13.8 258 12.8
2004-06-07 07:26:01 51°15.338 2°48.865 262.8 13.8 259 12.8
2004-06-07 07:26:07 51°15.334 2°48.829 262.8 13.8 259 12.8
2004-06-07 07:26:12 51°15.33 2°48.799 262.7 13.8 258 12.7
2004-06-07 07:26:17 51°15.326 2°48.77 262.4 13.8 258 12.8
2004-06-07 07:26:21 51°15.323 2°48.746 262.1 13.8 258 12.8
2004-06-07 07:26:27 51°15.318 2°48.71 261.8 13.8 258 12.7
2004-06-07 07:26:31 51°15.315 2°48.686 261.9 13.8 258 12.7
2004-06-07 07:26:37 51°15.31 2°48.651 262 13.8 258 12.6
2004-06-07 07:26:42 51°15.306 2°48.621 262 13.8 258 12.6
2004-06-07 07:26:47 51°15.302 2°48.591 261.9 13.8 258 12.5
2004-06-07 07:26:51 51°15.298 2°48.567 262 13.8 258 12.4
2004-06-07 07:26:57 51°15.294 2°48.531 262.2 13.8 258 12.4
2004-06-07 07:27:02 51°15.29 2°48.502 262.2 13.8 258 12.3
2004-06-07 07:27:07 51°15.286 2°48.472 262.3 13.8 258 12.2
2004-06-07 07:27:11 51°15.283 2°48.448 262.3 13.8 258 12.1
2004-06-07 07:27:17 51°15.278 2°48.412 262.1 13.8 258 12
2004-06-07 07:27:21 51°15.275 2°48.388 262.3 13.8 259 11.9
2004-06-07 07:27:27 51°15.27 2°48.352 262.4 13.8 258 11.8
2004-06-07 07:27:32 51°15.266 2°48.323 262.2 13.8 257 11.7
2004-06-07 07:27:37 51°15.262 2°48.293 261.7 13.8 258 11.6
2004-06-07 07:27:42 51°15.258 2°48.263 261.6 13.8 258 11.5
2004-06-07 07:27:47 51°15.254 2°48.233 261.5 13.8 258 11.4
2004-06-07 07:27:51 51°15.251 2°48.209 261.6 13.8 258 11.2
2004-06-07 07:27:57 51°15.246 2°48.174 261.8 13.8 258 11
2004-06-07 07:28:01 51°15.243 2°48.15 262 13.8 258 11
2004-06-07 07:28:07 51°15.238 2°48.114 262.3 13.8 258 10.7
2004-06-07 07:28:11 51°15.235 2°48.09 262.5 13.8 258 10.6
2004-06-07 07:28:17 51°15.231 2°48.054 262.2 13.7 258 10.5
2004-06-07 07:28:21 51°15.227 2°48.031 261.8 13.7 257 10.4
2004-06-07 07:28:27 51°15.222 2°47.995 261.3 13.8 258 10.4
2004-06-07 07:28:31 51°15.219 2°47.971 261.5 13.7 258 10.3
2004-06-07 07:28:37 51°15.214 2°47.936 262 13.8 259 10.1
2004-06-07 07:28:41 51°15.212 2°47.912 262.3 13.8 258 10
2004-06-07 07:28:47 51°15.207 2°47.876 262.5 13.7 258 10
2004-06-07 07:28:52 51°15.203 2°47.846 262.5 13.7 258 9.8
2004-06-07 07:28:55 51°15.201 2°47.828 262.2 13.7 258 9.8
2004-06-07 07:29:00 51°15.197 2°47.799 261.7 13.8 258 9.7
2004-06-07 07:29:07 51°15.191 2°47.757 261.7 13.8 258 9.7
2004-06-07 07:29:11 51°15.188 2°47.733 261.7 13.7 259 9.6
2004-06-07 07:29:17 51°15.184 2°47.698 262.3 13.7 259 9.5
2004-06-07 07:29:22 51°15.18 2°47.668 262.6 13.8 260 9.6
2004-06-07 07:29:27 51°15.177 2°47.638 263.2 13.8 259 9.4
2004-06-07 07:29:31 51°15.174 2°47.614 263.2 13.8 260 9.3
2004-06-07 07:29:37 51°15.169 2°47.578 263.2 13.8 260 9.4
2004-06-07 07:29:41 51°15.166 2°47.554 262.8 13.8 259 9.3
2004-06-07 07:29:47 51°15.162 2°47.518 262 13.8 258 9.3
2004-06-07 07:29:51 51°15.158 2°47.495 261.9 13.7 258 9.2
2004-06-07 07:29:57 51°15.154 2°47.459 261.3 13.8 258 9.1
2004-06-07 07:30:02 51°15.149 2°47.429 261.3 13.8 258 9.1
2004-06-07 07:30:07 51°15.145 2°47.399 261.2 13.8 258 9.1
2004-06-07 07:30:12 51°15.141 2°47.37 261.1 13.8 258 9.1
2004-06-07 07:30:16 51°15.138 2°47.346 261.2 13.8 258 9.1
2004-06-07 07:30:21 51°15.134 2°47.316 261.4 13.8 258 9.1
2004-06-07 07:30:27 51°15.13 2°47.28 261.7 13.9 258 9.1
2004-06-07 07:30:32 51°15.126 2°47.25 262 13.9 259 9.1
2004-06-07 07:30:37 51°15.122 2°47.22 262.1 13.9 258 9.1
2004-06-07 07:30:41 51°15.119 2°47.195 262.4 13.9 259 9.1
2004-06-07 07:30:47 51°15.115 2°47.159 262.6 13.9 260 9.1
2004-06-07 07:30:52 51°15.111 2°47.129 262.8 13.9 259 9.1
2004-06-07 07:30:57 51°15.108 2°47.099 262.8 13.9 259 9.1
2004-06-07 07:31:01 51°15.105 2°47.075 262.7 13.9 259 9.1
2004-06-07 07:31:07 51°15.1 2°47.039 262.2 13.9 258 9.1
2004-06-07 07:31:11 51°15.096 2°47.015 261.2 13.9 258 9.2
2004-06-07 07:31:17 51°15.091 2°46.979 260.5 13.9 256 9.2
2004-06-07 07:31:22 51°15.087 2°46.949 259.8 13.9 257 9.2
2004-06-07 07:31:27 51°15.082 2°46.919 259.5 13.9 256 9.2
2004-06-07 07:31:31 51°15.078 2°46.895 259.3 13.9 257 9.2
2004-06-07 07:31:37 51°15.073 2°46.859 259.6 13.9 257 9.3
2004-06-07 07:31:42 51°15.069 2°46.829 259.7 13.9 257 9.3
2004-06-07 07:31:47 51°15.065 2°46.799 260.2 13.9 258 9.3
2004-06-07 07:31:51 51°15.061 2°46.775 260.7 13.9 257 9.4
2004-06-07 07:31:57 51°15.056 2°46.738 260.7 14 258 9.4
2004-06-07 07:32:01 51°15.053 2°46.714 260.7 14 257 9.4
2004-06-07 07:32:07 51°15.048 2°46.678 260.5 14 257 9.4
2004-06-07 07:32:11 51°15.044 2°46.654 260.4 14 257 9.5
2004-06-07 07:32:16 51°15.04 2°46.624 260.5 14 257 9.5
2004-06-07 07:32:20 51°15.037 2°46.6 260.5 14 258 9.5
2004-06-07 07:32:27 51°15.031 2°46.558 260.5 14 258 9.7
2004-06-07 07:32:31 51°15.027 2°46.533 260.5 14 258 9.7
2004-06-07 07:32:37 51°15.022 2°46.497 260.6 14 257 9.7
2004-06-07 07:32:42 51°15.018 2°46.467 260.5 14 257 9.7
2004-06-07 07:32:47 51°15.014 2°46.437 260.2 14 257 9.8
2004-06-07 07:32:51 51°15.01 2°46.413 260 14 257 9.9
2004-06-07 07:32:57 51°15.005 2°46.377 259.8 14 257 10
2004-06-07 07:33:01 51°15.001 2°46.353 259.9 14 257 10
2004-06-07 07:33:07 51°14.997 2°46.317 260.4 14 258 10.1
2004-06-07 07:33:12 51°14.992 2°46.287 260.7 14 257 10.1
2004-06-07 07:33:17 51°14.988 2°46.256 260.6 14 258 10.2
2004-06-07 07:33:22 51°14.983 2°46.226 260.6 14 257 10.3
2004-06-07 07:33:27 51°14.979 2°46.196 260.3 14 257 10.5
2004-06-07 07:33:31 51°14.976 2°46.172 260.3 14 257 10.6
2004-06-07 07:33:37 51°14.97 2°46.136 260.3 14 257 10.7
2004-06-07 07:33:41 51°14.967 2°46.112 260.5 14 258 10.8
2004-06-07 07:33:47 51°14.962 2°46.076 260.6 14 257 10.9
2004-06-07 07:33:52 51°14.957 2°46.045 260.3 14 257 10.9
2004-06-07 07:33:55 51°14.955 2°46.027 260.1 14 257 11.1
2004-06-07 07:34:01 51°14.949 2°45.991 259.8 14 257 11.1
2004-06-07 07:34:07 51°14.944 2°45.955 259.9 14 257 11.2
2004-06-07 07:34:12 51°14.94 2°45.925 260.3 14 257 11.3
2004-06-07 07:34:17 51°14.936 2°45.895 260.3 14 257 11.4
2004-06-07 07:34:22 51°14.931 2°45.865 260.5 14 257 11.4
2004-06-07 07:34:27 51°14.927 2°45.835 260.5 14 257 11.5
2004-06-07 07:34:32 51°14.922 2°45.805 260.3 14 257 11.6
2004-06-07 07:34:35 51°14.92 2°45.787 260.1 14 257 11.6
2004-06-07 07:34:41 51°14.914 2°45.751 259.4 14 256 11.7
2004-06-07 07:34:47 51°14.908 2°45.715 259.5 14 255 11.8
2004-06-07 07:34:51 51°14.905 2°45.691 259.1 14 256 12
2004-06-07 07:34:57 51°14.899 2°45.655 259.4 14 256 12
2004-06-07 07:34:59 51°14.897 2°45.643 259.6 14 256 12.1
2004-06-07 07:35:07 51°14.89 2°45.595 260.4 14 257 12.2
2004-06-07 07:35:12 51°14.886 2°45.565 260.5 14 257 12.3
2004-06-07 07:35:16 51°14.883 2°45.541 261.1 14 257 12.5
2004-06-07 07:35:21 51°14.878 2°45.511 261.1 14 257 12.6
2004-06-07 07:35:27 51°14.873 2°45.474 260.9 14 257 12.7
2004-06-07 07:35:32 51°14.868 2°45.444 260.8 14 257 12.7
2004-06-07 07:35:37 51°14.864 2°45.414 260.5 14 257 12.9
2004-06-07 07:35:42 51°14.859 2°45.384 260.5 14 256 12.9
2004-06-07 07:35:47 51°14.855 2°45.354 260.2 14 257 13
2004-06-07 07:35:52 51°14.85 2°45.324 260.5 14 257 13.1
2004-06-07 07:35:57 51°14.846 2°45.294 260.6 14.1 257 13.2
2004-06-07 07:36:02 51°14.842 2°45.263 261 14 257 13.4
2004-06-07 07:36:07 51°14.837 2°45.233 261.2 14 257 13.5
2004-06-07 07:36:12 51°14.833 2°45.203 261.2 14 257 13.5
2004-06-07 07:36:17 51°14.829 2°45.173 261.2 14 257 13.6
2004-06-07 07:36:21 51°14.825 2°45.149 261.2 14 257 13.6
2004-06-07 07:36:27 51°14.82 2°45.112 261.2 14 257 13.7
2004-06-07 07:36:32 51°14.815 2°45.082 261.1 14 257 13.7
2004-06-07 07:36:37 51°14.811 2°45.052 261.1 14 257 13.8
2004-06-07 07:36:41 51°14.807 2°45.028 260.7 14 257 13.8
2004-06-07 07:36:47 51°14.802 2°44.992 260.7 14 256 13.9
2004-06-07 07:36:51 51°14.798 2°44.968 260.5 14 257 14
2004-06-07 07:36:57 51°14.792 2°44.932 260.2 14 256 14.1
2004-06-07 07:37:02 51°14.788 2°44.902 260.2 14.1 257 14.2
2004-06-07 07:37:07 51°14.783 2°44.872 260.4 14 256 14.3
2004-06-07 07:37:11 51°14.779 2°44.847 260.4 14 256 14.3
2004-06-07 07:37:17 51°14.774 2°44.811 260.4 14 256 14.4
2004-06-07 07:37:22 51°14.769 2°44.781 260.2 14.1 256 14.5
2004-06-07 07:37:27 51°14.764 2°44.751 260.2 14.1 256 14.6
2004-06-07 07:37:31 51°14.761 2°44.727 260.5 14.1 256 14.6
2004-06-07 07:37:37 51°14.755 2°44.691 260.6 14.1 256 14.6
2004-06-07 07:37:41 51°14.751 2°44.666 260.3 14.1 256 14.6
2004-06-07 07:37:47 51°14.746 2°44.63 260.2 14.1 256 14.6
2004-06-07 07:37:52 51°14.741 2°44.6 259.9 14.1 256 14.6
2004-06-07 07:37:57 51°14.736 2°44.57 260.1 14.1 256 14.7
2004-06-07 07:38:02 51°14.731 2°44.539 260.1 14.1 256 14.7
2004-06-07 07:38:07 51°14.726 2°44.509 259.9 14.2 256 14.8
2004-06-07 07:38:12 51°14.721 2°44.479 259.9 14.1 255 14.8
2004-06-07 07:38:17 51°14.717 2°44.448 259.8 14.1 255 14.9
2004-06-07 07:38:22 51°14.712 2°44.418 260 14.1 256 14.9
2004-06-07 07:38:27 51°14.708 2°44.387 260.5 14.1 257 15
2004-06-07 07:38:32 51°14.703 2°44.357 260.7 14.1 257 15.1
2004-06-07 07:38:37 51°14.698 2°44.327 260.9 14.1 257 15.2
2004-06-07 07:38:40 51°14.695 2°44.309 260.9 14.1 256 15.3
2004-06-07 07:38:47 51°14.689 2°44.266 260.5 14.2 256 15.4
2004-06-07 07:38:52 51°14.684 2°44.235 260.4 14.1 256 15.5
2004-06-07 07:38:57 51°14.679 2°44.205 260.2 14.1 256 15.6
2004-06-07 07:39:01 51°14.675 2°44.181 259.9 14.2 256 15.7
2004-06-07 07:39:07 51°14.669 2°44.145 260.2 14.1 256 15.8
2004-06-07 07:39:12 51°14.665 2°44.114 260.5 14.1 256 15.8
2004-06-07 07:39:15 51°14.662 2°44.096 260.5 14.1 256 15.8
2004-06-07 07:39:21 51°14.656 2°44.06 260.4 14.1 256 15.9
2004-06-07 07:39:27 51°14.65 2°44.023 260.2 14.1 255 15.6
2004-06-07 07:39:31 51°14.646 2°43.999 259.8 14.1 256 15.7
2004-06-07 07:39:37 51°14.641 2°43.963 259.8 14.1 256 15.8
2004-06-07 07:39:42 51°14.636 2°43.933 260.1 14.1 256 15.7
2004-06-07 07:39:47 51°14.631 2°43.902 260.5 14.1 256 15.9
2004-06-07 07:39:52 51°14.627 2°43.872 260.5 14.1 256 15.9
2004-06-07 07:39:57 51°14.622 2°43.842 260.5 14.1 256 15.2
2004-06-07 07:40:02 51°14.617 2°43.811 260.4 14.2 256 15.4
2004-06-07 07:40:07 51°14.612 2°43.781 260.2 14.1 256 15.7
2004-06-07 07:40:11 51°14.608 2°43.757 260 14.1 256 16.1
2004-06-07 07:40:17 51°14.603 2°43.72 260.1 14.1 256 16.1
2004-06-07 07:40:21 51°14.599 2°43.696 260.1 14.2 256 16.2
2004-06-07 07:40:27 51°14.593 2°43.66 260.3 14.1 256 16.3
2004-06-07 07:40:31 51°14.59 2°43.635 260.5 14.1 256 16.3
2004-06-07 07:40:37 51°14.584 2°43.599 260.5 14.1 256 16.1
2004-06-07 07:40:42 51°14.579 2°43.569 260.5 14.1 256 16.3
2004-06-07 07:40:47 51°14.574 2°43.539 260.2 14.1 256 16.5
2004-06-07 07:40:51 51°14.57 2°43.515 260.1 14 256 16.1
2004-06-07 07:40:57 51°14.565 2°43.479 259.9 14.1 255 16.1
2004-06-07 07:41:02 51°14.56 2°43.449 259.9 14 256 16.1
2004-06-07 07:41:07 51°14.555 2°43.419 260.3 14 256 16.3
2004-06-07 07:41:12 51°14.55 2°43.389 260.4 14 256 16.6
2004-06-07 07:41:17 51°14.546 2°43.359 260.5 14 256 16.4
2004-06-07 07:41:21 51°14.542 2°43.335 260.1 14 256 16.4
2004-06-07 07:41:27 51°14.536 2°43.299 260 14 256 16.6
2004-06-07 07:41:31 51°14.532 2°43.275 260.1 14 256 16.6
2004-06-07 07:41:37 51°14.527 2°43.239 260.3 14 256 16.7
2004-06-07 07:41:42 51°14.522 2°43.209 260.7 13.9 257 16.6
2004-06-07 07:41:47 51°14.518 2°43.179 260.7 13.9 256 16.6
2004-06-07 07:41:52 51°14.513 2°43.149 260.5 13.9 256 16.7
2004-06-07 07:41:57 51°14.509 2°43.119 260.3 13.9 256 16.6
2004-06-07 07:42:01 51°14.505 2°43.095 259.8 13.9 256 16.9
2004-06-07 07:42:07 51°14.499 2°43.059 259.8 13.9 256 17
2004-06-07 07:42:11 51°14.496 2°43.035 259.8 13.9 257 16.9
2004-06-07 07:42:17 51°14.49 2°42.999 260.1 13.9 257 16.9
2004-06-07 07:42:21 51°14.487 2°42.975 260.3 14 257 16.9
2004-06-07 07:42:27 51°14.482 2°42.939 260.5 14 257 16.9
2004-06-07 07:42:31 51°14.478 2°42.915 260.4 14 257 16.9
2004-06-07 07:42:37 51°14.473 2°42.878 260.1 14.1 256 16.9
2004-06-07 07:42:42 51°14.468 2°42.848 259.8 14.1 256 16.9
2004-06-07 07:42:47 51°14.463 2°42.818 259.8 14.1 257 16.9
2004-06-07 07:42:52 51°14.459 2°42.787 259.9 14.1 257 17
2004-06-07 07:42:57 51°14.455 2°42.757 260 14.1 257 16.9
2004-06-07 07:43:01 51°14.451 2°42.732 260.3 14.1 257 16.9
2004-06-07 07:43:07 51°14.446 2°42.696 260.5 14.1 257 17
2004-06-07 07:43:11 51°14.442 2°42.671 260.5 14.2 257 16.9
2004-06-07 07:43:17 51°14.437 2°42.635 260.3 14.1 257 16.9
2004-06-07 07:43:21 51°14.433 2°42.61 259.9 14.2 257 16.9
2004-06-07 07:43:27 51°14.428 2°42.574 259.8 14.2 257 16.9
2004-06-07 07:43:32 51°14.423 2°42.543 259.7 14.2 257 16.8
2004-06-07 07:43:37 51°14.419 2°42.513 259.6 14.2 257 16.8
2004-06-07 07:43:42 51°14.415 2°42.482 259.9 14.1 257 16.8
2004-06-07 07:43:47 51°14.41 2°42.452 260.3 14.1 258 16.8
2004-06-07 07:43:52 51°14.406 2°42.421 260.4 14.2 257 16.7
2004-06-07 07:43:57 51°14.402 2°42.391 260.3 14.2 257 16.7
2004-06-07 07:44:01 51°14.398 2°42.366 259.9 14.1 257 16.8
2004-06-07 07:44:07 51°14.392 2°42.33 259.8 14.2 257 16.7
2004-06-07 07:44:12 51°14.388 2°42.299 259.8 14.2 257 16.8
2004-06-07 07:44:17 51°14.384 2°42.269 259.9 14.2 257 16.8
2004-06-07 07:44:21 51°14.38 2°42.245 260.3 14.1 257 16.9
2004-06-07 07:44:27 51°14.375 2°42.208 260.5 14.2 258 16.8
2004-06-07 07:44:32 51°14.371 2°42.177 260.3 14.2 257 16.9
2004-06-07 07:44:37 51°14.367 2°42.147 260 14.2 257 16.8
2004-06-07 07:44:41 51°14.363 2°42.122 260 14.2 257 16.8
2004-06-07 07:44:47 51°14.358 2°42.086 260.2 14.1 257 16.6
2004-06-07 07:44:51 51°14.354 2°42.062 260.3 14.2 257 16.7
2004-06-07 07:44:57 51°14.349 2°42.025 260.2 14.1 257 16.6
2004-06-07 07:45:01 51°14.346 2°42.001 259.8 14.2 257 16.6
2004-06-07 07:45:07 51°14.34 2°41.964 259.6 14.1 257 16.5
2004-06-07 07:45:11 51°14.337 2°41.94 259.8 14.1 257 16.4
2004-06-07 07:45:17 51°14.332 2°41.903 260.7 14.1 258 16.3
2004-06-07 07:45:21 51°14.329 2°41.879 261.5 14.1 259 16.3
2004-06-07 07:45:27 51°14.325 2°41.842 262 14.1 259 16.2
2004-06-07 07:45:31 51°14.322 2°41.818 262.5 14.1 259 15.9
2004-06-07 07:45:37 51°14.318 2°41.781 262.6 14.1 259 15.5
2004-06-07 07:45:42 51°14.314 2°41.75 262.7 14.1 260 15
2004-06-07 07:45:47 51°14.311 2°41.72 262.8 14.1 260 15
2004-06-07 07:45:51 51°14.308 2°41.695 262.9 14.1 260 15.3
2004-06-07 07:45:57 51°14.304 2°41.658 262.9 14.1 260 15.3
2004-06-07 07:46:01 51°14.301 2°41.634 263.1 14.1 260 15.3
2004-06-07 07:46:07 51°14.297 2°41.597 262.6 14.2 259 15.1
2004-06-07 07:46:11 51°14.294 2°41.573 262.2 14.1 259 14.9
2004-06-07 07:46:17 51°14.289 2°41.536 262.1 14.1 259 14.7
2004-06-07 07:46:22 51°14.285 2°41.505 262 14.1 259 14.7
2004-06-07 07:46:27 51°14.282 2°41.475 262 14.1 259 14.6
2004-06-07 07:46:31 51°14.279 2°41.45 262.1 14.1 259 14.6
2004-06-07 07:46:37 51°14.274 2°41.414 262.2 14.1 259 14.5
2004-06-07 07:46:42 51°14.271 2°41.383 262.5 14.1 260 14.3
2004-06-07 07:46:47 51°14.268 2°41.352 262.6 14.1 260 14.2
2004-06-07 07:46:52 51°14.264 2°41.322 262.7 14.1 260 14.1
2004-06-07 07:46:57 51°14.261 2°41.291 262.7 14.1 260 14.1
2004-06-07 07:47:01 51°14.258 2°41.266 262.7 14.1 260 13.9
2004-06-07 07:47:07 51°14.254 2°41.229 262.9 14.2 261 13.9
2004-06-07 07:47:12 51°14.251 2°41.198 263.4 14.1 261 13.9
2004-06-07 07:47:17 51°14.248 2°41.167 264.1 14.1 261 13.9
2004-06-07 07:47:22 51°14.246 2°41.136 264.6 14.1 262 13.9
2004-06-07 07:47:27 51°14.243 2°41.105 264.8 14.2 262 13.9
2004-06-07 07:47:31 51°14.241 2°41.081 264.9 14.1 261 13.5
2004-06-07 07:47:37 51°14.237 2°41.043 264.5 14.1 262 13
2004-06-07 07:47:42 51°14.234 2°41.013 264.5 14.1 262 13.5
2004-06-07 07:47:47 51°14.232 2°40.982 264.5 14.1 262 13.7
2004-06-07 07:47:52 51°14.229 2°40.951 264.5 14.1 262 13.9
2004-06-07 07:47:57 51°14.226 2°40.92 264.6 14.1 262 14.3
2004-06-07 07:48:01 51°14.223 2°40.895 264.4 14.2 262 14.4
2004-06-07 07:48:07 51°14.22 2°40.858 264.4 14.2 262 14.6
2004-06-07 07:48:12 51°14.217 2°40.827 264.3 14.1 262 14.5
2004-06-07 07:48:15 51°14.215 2°40.808 264.2 14.1 262 14.6
2004-06-07 07:48:21 51°14.212 2°40.771 264.2 14.1 262 14.3
2004-06-07 07:48:27 51°14.209 2°40.734 264.2 14.1 262 13.8
2004-06-07 07:48:32 51°14.206 2°40.703 264.5 14.1 262 13.2
2004-06-07 07:48:37 51°14.203 2°40.672 264.8 14.1 262 13.1
2004-06-07 07:48:41 51°14.201 2°40.647 264.6 14.1 262 13
2004-06-07 07:48:47 51°14.197 2°40.61 264.6 14.1 262 12.7
2004-06-07 07:48:52 51°14.194 2°40.58 264.5 14.1 261 12.7
2004-06-07 07:48:57 51°14.192 2°40.549 264.1 14.1 262 12.8
2004-06-07 07:49:02 51°14.189 2°40.518 264.2 14.1 262 13.1
2004-06-07 07:49:07 51°14.187 2°40.487 265.3 14.1 263 13.2
2004-06-07 07:49:11 51°14.185 2°40.462 266 14.1 264 13.4
2004-06-07 07:49:17 51°14.183 2°40.425 267 14.1 265 13.6
2004-06-07 07:49:21 51°14.181 2°40.4 267.5 14.1 265 13.7
2004-06-07 07:49:27 51°14.179 2°40.362 267.7 14.1 265 13.7
2004-06-07 07:49:31 51°14.178 2°40.338 268 14.1 265 13.6
2004-06-07 07:49:37 51°14.176 2°40.301 268.1 14.1 265 13.3
2004-06-07 07:49:41 51°14.175 2°40.276 268.1 14 265 13.3
2004-06-07 07:49:47 51°14.173 2°40.239 267.9 14.1 265 13.2
2004-06-07 07:49:52 51°14.171 2°40.208 267.8 14 265 12.5
2004-06-07 07:49:57 51°14.169 2°40.177 267.8 14 265 12
2004-06-07 07:50:02 51°14.167 2°40.146 267.8 14 265 11.2
2004-06-07 07:50:07 51°14.166 2°40.115 267.9 14 265 12
2004-06-07 07:50:11 51°14.165 2°40.09 268 14 265 13.1
2004-06-07 07:50:17 51°14.163 2°40.053 268.2 14 265 13.4
2004-06-07 07:50:21 51°14.161 2°40.028 268.1 14.1 264 13.5
2004-06-07 07:50:27 51°14.159 2°39.991 267.8 14.1 264 13.4
2004-06-07 07:50:31 51°14.157 2°39.967 267.4 14.1 264 13.4
2004-06-07 07:50:37 51°14.154 2°39.93 266.7 14 263 13.3
2004-06-07 07:50:42 51°14.151 2°39.899 266.9 14 263 13.1
2004-06-07 07:50:47 51°14.149 2°39.869 267 14 264 12.6
2004-06-07 07:50:52 51°14.147 2°39.838 267.4 14 264 12.7
2004-06-07 07:50:57 51°14.145 2°39.807 267.7 14 264 12.5
2004-06-07 07:51:01 51°14.144 2°39.783 267.7 14 264 12.3
2004-06-07 07:51:07 51°14.142 2°39.746 267.7 13.9 264 12.5
2004-06-07 07:51:11 51°14.14 2°39.722 267.8 14 264 12.8
2004-06-07 07:51:17 51°14.137 2°39.685 267.7 14 264 12.8
2004-06-07 07:51:21 51°14.136 2°39.66 267.7 14 264 12.8
2004-06-07 07:51:27 51°14.133 2°39.623 267.7 14 264 12.9
2004-06-07 07:51:32 51°14.132 2°39.592 267.8 14 264 12.9
2004-06-07 07:51:35 51°14.13 2°39.574 268 14 264 13
2004-06-07 07:51:41 51°14.128 2°39.537 268 14.1 264 13.1
2004-06-07 07:51:47 51°14.126 2°39.5 267.8 14.1 264 13
2004-06-07 07:51:51 51°14.124 2°39.475 267.3 14.1 264 13.3
2004-06-07 07:51:57 51°14.121 2°39.438 267.3 14.1 264 13.1
2004-06-07 07:52:02 51°14.119 2°39.407 267.1 14.1 264 13
2004-06-07 07:52:07 51°14.117 2°39.376 267 14.1 263 12.7
2004-06-07 07:52:12 51°14.115 2°39.345 267 14.1 264 12.9
2004-06-07 07:52:17 51°14.112 2°39.314 267 14.1 264 12.7
2004-06-07 07:52:21 51°14.111 2°39.289 267 14.1 264 12.9
2004-06-07 07:52:27 51°14.108 2°39.252 267.3 14.1 264 12.6
2004-06-07 07:52:32 51°14.106 2°39.221 267.5 14 264 12.4
2004-06-07 07:52:37 51°14.104 2°39.191 267.7 14.1 264 12.1
2004-06-07 07:52:42 51°14.102 2°39.16 267.8 14 264 12.1
2004-06-07 07:52:47 51°14.1 2°39.129 267.5 14 264 12.4
2004-06-07 07:52:51 51°14.098 2°39.104 267.3 14 264 12.1
2004-06-07 07:52:57 51°14.096 2°39.067 267 14 264 12.1
2004-06-07 07:53:02 51°14.094 2°39.036 267 14 264 11.9
2004-06-07 07:53:07 51°14.092 2°39.005 267 14 264 11.8
2004-06-07 07:53:11 51°14.09 2°38.981 267.2 14 264 11.8
2004-06-07 07:53:17 51°14.088 2°38.944 267.6 14 265 11.6
2004-06-07 07:53:21 51°14.087 2°38.919 267.8 14 264 11.5
2004-06-07 07:53:27 51°14.085 2°38.882 267.8 14 265 10.6
2004-06-07 07:53:31 51°14.083 2°38.858 267.5 14 264 10.3
2004-06-07 07:53:37 51°14.08 2°38.82 267.1 14 264 10.5
2004-06-07 07:53:41 51°14.079 2°38.796 267 14 264 10.8
2004-06-07 07:53:47 51°14.076 2°38.759 267 14.1 264 11.5
2004-06-07 07:53:49 51°14.076 2°38.747 267 14.1 264 11.2
2004-06-07 07:53:57 51°14.073 2°38.697 267 14.2 264 11.5
2004-06-07 07:54:01 51°14.071 2°38.672 267 14.2 265 12
2004-06-07 07:54:07 51°14.069 2°38.634 267.3 14.2 265 11.9
2004-06-07 07:54:12 51°14.067 2°38.603 267.7 14.2 265 12.8
2004-06-07 07:54:17 51°14.065 2°38.571 267.8 14.2 265 12.8
2004-06-07 07:54:22 51°14.063 2°38.54 267.8 14.2 265 13.5
2004-06-07 07:54:27 51°14.061 2°38.509 267.4 14.2 263 13.8
2004-06-07 07:54:32 51°14.058 2°38.478 265.6 14.2 261 14.4
2004-06-07 07:54:37 51°14.055 2°38.447 263.6 14.2 261 14.7
2004-06-07 07:54:42 51°14.051 2°38.417 262.5 14.1 259 14.7
2004-06-07 07:54:47 51°14.046 2°38.387 260.5 14.1 258 14.8
2004-06-07 07:54:52 51°14.041 2°38.357 258.8 14.1 256 15
2004-06-07 07:54:57 51°14.036 2°38.327 257.3 14 254 15.4
2004-06-07 07:55:03 51°14.029 2°38.291 256.1 14.1 254 15.4
2004-06-07 07:55:07 51°14.025 2°38.267 255.4 14 253 15.2
2004-06-07 07:55:12 51°14.019 2°38.238 254.8 14.1 253 15.4
2004-06-07 07:55:17 51°14.013 2°38.208 254.7 14.1 253 15.7
2004-06-07 07:55:22 51°14.008 2°38.178 254.7 14.1 253 15.6
2004-06-07 07:55:27 51°14.002 2°38.148 255.1 14.1 254 16.1
2004-06-07 07:55:32 51°13.997 2°38.118 255.4 14.1 254 15.7
2004-06-07 07:55:37 51°13.992 2°38.088 255.7 14.1 254 15.5
2004-06-07 07:55:41 51°13.987 2°38.064 255.9 14.1 254 15.7
2004-06-07 07:55:47 51°13.98 2°38.028 255.8 14.1 254 16.1
2004-06-07 07:55:51 51°13.976 2°38.004 255.5 14.1 254 16.3
2004-06-07 07:55:57 51°13.969 2°37.969 255.4 14.1 254 15.7
2004-06-07 07:56:02 51°13.964 2°37.939 255.2 14.1 254 15.1
2004-06-07 07:56:07 51°13.959 2°37.909 255.2 14.1 254 13.2
2004-06-07 07:56:12 51°13.953 2°37.879 255.4 14 254 13.8
2004-06-07 07:56:17 51°13.948 2°37.849 255.8 14.1 255 15.2
2004-06-07 07:56:22 51°13.943 2°37.819 256 14.1 254 15.8
2004-06-07 07:56:27 51°13.937 2°37.789 255.8 14.2 254 16.4
2004-06-07 07:56:32 51°13.932 2°37.759 255.7 14.2 254 16.9
2004-06-07 07:56:37 51°13.926 2°37.729 255.4 14.2 254 17.1
2004-06-07 07:56:41 51°13.922 2°37.704 255.1 14.2 253 17.3
2004-06-07 07:56:47 51°13.915 2°37.668 255.1 14.2 254 17.1
2004-06-07 07:56:52 51°13.909 2°37.638 255 14.2 253 17.5
2004-06-07 07:56:57 51°13.904 2°37.608 255 14.2 254 17.4
2004-06-07 07:57:01 51°13.899 2°37.584 255.3 14.2 254 17.8
2004-06-07 07:57:05 51°13.895 2°37.56 255.6 14.2 254 18.3
2004-06-07 07:57:12 51°13.887 2°37.517 255.9 14.2 254 18.3
2004-06-07 07:57:17 51°13.882 2°37.488 256.2 14.2 254 18.1
2004-06-07 07:57:21 51°13.877 2°37.464 254.4 14.1 251 18.3
2004-06-07 07:57:27 51°13.869 2°37.429 252.4 14.1 249 18.2
2004-06-07 07:57:31 51°13.863 2°37.406 250.4 14.1 248 18.8
2004-06-07 07:57:37 51°13.853 2°37.372 248.3 14.1 247 18.8
2004-06-07 07:57:41 51°13.847 2°37.349 247.5 14.1 246 18.4
2004-06-07 07:57:47 51°13.837 2°37.315 246.7 14.1 246 18.3
2004-06-07 07:57:52 51°13.829 2°37.287 246.2 14.1 245 18.6
2004-06-07 07:57:57 51°13.821 2°37.259 245.8 14.1 245 19.2
2004-06-07 07:58:01 51°13.814 2°37.236 244.8 14.1 244 18.3
2004-06-07 07:58:07 51°13.803 2°37.203 244.1 14.1 244 17.9
2004-06-07 07:58:11 51°13.796 2°37.181 243.5 14.1 243 17.8
2004-06-07 07:58:17 51°13.785 2°37.148 242.9 14.1 243 17.8
2004-06-07 07:58:21 51°13.778 2°37.126 242.9 14.1 243 18.3
2004-06-07 07:58:27 51°13.767 2°37.093 242.5 14.1 243 18.7
2004-06-07 07:58:31 51°13.76 2°37.07 242.7 14.1 243 18.3
2004-06-07 07:58:37 51°13.749 2°37.037 243.1 14.1 243 18.5
2004-06-07 07:58:42 51°13.741 2°37.009 243.2 14.1 243 18.8
2004-06-07 07:58:47 51°13.732 2°36.981 243.5 14.1 243 19.2
2004-06-07 07:58:51 51°13.725 2°36.959 243.6 14.1 243 18.9
2004-06-07 07:58:57 51°13.714 2°36.925 243.4 14.1 243 17.9
2004-06-07 07:59:02 51°13.705 2°36.898 243.3 14.1 243 18.2
2004-06-07 07:59:07 51°13.696 2°36.87 243.2 14.1 243 18.3
2004-06-07 07:59:09 51°13.693 2°36.859 243.4 14.1 244 18
2004-06-07 07:59:17 51°13.679 2°36.814 243.8 14.1 244 18.4
2004-06-07 07:59:22 51°13.67 2°36.786 244 14.2 243 17.9
2004-06-07 07:59:27 51°13.662 2°36.759 243.8 14.1 243 18.1
2004-06-07 07:59:32 51°13.653 2°36.731 243.8 14.1 243 17.9
2004-06-07 07:59:37 51°13.644 2°36.703 243.5 14.1 243 18.6
2004-06-07 07:59:41 51°13.637 2°36.681 243.5 14.1 243 18.5
2004-06-07 07:59:47 51°13.626 2°36.648 243.4 14.1 243 18.1
2004-06-07 07:59:52 51°13.617 2°36.62 243.3 14.1 243 18.3
2004-06-07 07:59:57 51°13.608 2°36.592 243.3 14.1 243 18
2004-06-07 08:00:02 51°13.599 2°36.564 243.7 14.1 244 17.9
2004-06-07 08:00:07 51°13.591 2°36.536 243.9 14 244 18
2004-06-07 08:00:12 51°13.582 2°36.508 244 14.1 244 17.8
2004-06-07 08:00:17 51°13.573 2°36.48 244.2 14.1 244 17.8
2004-06-07 08:00:21 51°13.566 2°36.458 244.3 14.1 244 17.7
2004-06-07 08:00:27 51°13.556 2°36.425 244.4 14.1 243 17.6
2004-06-07 08:00:32 51°13.547 2°36.397 244.1 14.1 243 17.3
2004-06-07 08:00:37 51°13.538 2°36.369 243.8 14.1 243 17.3
2004-06-07 08:00:42 51°13.529 2°36.341 243.7 14.1 243 17
2004-06-07 08:00:47 51°13.52 2°36.314 243.8 14.1 243 16.9
2004-06-07 08:00:52 51°13.511 2°36.286 243.1 14.1 241 17
2004-06-07 08:00:57 51°13.501 2°36.26 241.6 14.1 240 17.1
2004-06-07 08:01:02 51°13.491 2°36.233 240.4 14 239 16.9
2004-06-07 08:01:07 51°13.481 2°36.207 239.2 14.1 238 16.8
2004-06-07 08:01:12 51°13.47 2°36.18 238.7 14.1 238 16.5
2004-06-07 08:01:16 51°13.462 2°36.159 238.5 14 238 16.6
2004-06-07 08:01:22 51°13.45 2°36.128 238.3 14 238 16.4
2004-06-07 08:01:27 51°13.439 2°36.102 238.2 14 238 16.4
2004-06-07 08:01:31 51°13.431 2°36.081 238.2 14.1 238 16.3
2004-06-07 08:01:37 51°13.419 2°36.049 238.4 14.1 238 16.3
2004-06-07 08:01:42 51°13.408 2°36.022 238.7 14.1 238 16.2
2004-06-07 08:01:47 51°13.398 2°35.996 238.8 14 238 16.1
2004-06-07 08:01:52 51°13.388 2°35.969 238.9 14.1 238 16.2
2004-06-07 08:01:57 51°13.377 2°35.943 239.1 14.1 238 16.3
2004-06-07 08:02:00 51°13.371 2°35.928 238.5 14 237 16.2
2004-06-07 08:02:07 51°13.355 2°35.892 236.9 14 235 16.2
2004-06-07 08:02:12 51°13.344 2°35.867 235.3 14 234 16.2
2004-06-07 08:02:17 51°13.332 2°35.842 234.7 14 234 16.4
2004-06-07 08:02:22 51°13.321 2°35.817 233.8 13.9 233 16.5
2004-06-07 08:02:27 51°13.309 2°35.793 233.5 14 233 16.1
2004-06-07 08:02:32 51°13.297 2°35.768 233.3 14 233 16.3
2004-06-07 08:02:37 51°13.286 2°35.744 233.3 14 233 16.1
2004-06-07 08:02:42 51°13.274 2°35.719 233.2 14 233 16.2
2004-06-07 08:02:47 51°13.262 2°35.694 233.3 14 232 16.3
2004-06-07 08:02:52 51°13.25 2°35.67 233.2 14 233 16
2004-06-07 08:02:57 51°13.239 2°35.645 233.2 14 233 15.9
2004-06-07 08:03:02 51°13.227 2°35.62 233.6 14 233 16.1
2004-06-07 08:03:07 51°13.215 2°35.595 233.7 14 233 15.8
2004-06-07 08:03:11 51°13.206 2°35.576 233.8 14 233 16
2004-06-07 08:03:16 51°13.195 2°35.551 233.9 14 234 16
2004-06-07 08:03:22 51°13.181 2°35.521 234 14 233 16
2004-06-07 08:03:27 51°13.169 2°35.496 233.8 14 234 16.1
2004-06-07 08:03:32 51°13.157 2°35.472 233.8 14 233 15.6
2004-06-07 08:03:37 51°13.146 2°35.447 233.7 14 233 15.4
2004-06-07 08:03:41 51°13.136 2°35.428 233.4 14 233 15.5
2004-06-07 08:03:47 51°13.122 2°35.398 233.2 14 233 15.9
2004-06-07 08:03:51 51°13.112 2°35.379 233.3 14 232 15.5
2004-06-07 08:03:57 51°13.098 2°35.349 233 14 233 15.8
2004-06-07 08:04:02 51°13.086 2°35.325 233.5 14 233 15.5
2004-06-07 08:04:07 51°13.075 2°35.3 233.7 14 233 15.6
2004-06-07 08:04:11 51°13.066 2°35.28 234.2 14 234 15.2
2004-06-07 08:04:17 51°13.052 2°35.25 234.4 14 234 15.1
2004-06-07 08:04:22 51°13.04 2°35.225 234.5 13.9 234 15
2004-06-07 08:04:27 51°13.029 2°35.201 234.7 13.9 233 15.2
2004-06-07 08:04:32 51°13.017 2°35.176 234.3 14 233 15.3
2004-06-07 08:04:37 51°13.006 2°35.151 234.1 13.9 233 14.8
2004-06-07 08:04:39 51°13.001 2°35.142 234 13.9 233 14.6
2004-06-07 08:04:47 51°12.983 2°35.103 233.9 13.9 233 14.5
2004-06-07 08:04:52 51°12.971 2°35.078 233.9 13.9 233 14.6
2004-06-07 08:04:56 51°12.961 2°35.059 232.9 13.8 231 14.4
2004-06-07 08:05:02 51°12.946 2°35.032 231.5 13.8 230 14.1
2004-06-07 08:05:07 51°12.933 2°35.009 230.1 13.8 229 13.5
2004-06-07 08:05:11 51°12.923 2°34.99 229.4 13.8 229 13.5
2004-06-07 08:05:16 51°12.911 2°34.968 229 13.8 228 12.8
2004-06-07 08:05:21 51°12.898 2°34.945 228.6 13.8 228 12.6
2004-06-07 08:05:27 51°12.883 2°34.917 228.5 13.8 229 12.6
2004-06-07 08:05:32 51°12.87 2°34.894 228.8 13.8 229 12.2
2004-06-07 08:05:37 51°12.857 2°34.871 229 13.8 229 11.9
2004-06-07 08:05:42 51°12.845 2°34.848 229.3 13.8 229 11.9
2004-06-07 08:05:47 51°12.832 2°34.826 229.3 13.8 229 11.8
2004-06-07 08:05:52 51°12.82 2°34.803 228.9 13.8 228 11.5
2004-06-07 08:05:57 51°12.807 2°34.78 228.7 13.8 229 11.6
2004-06-07 08:06:02 51°12.794 2°34.757 229.1 13.8 229 11.2
2004-06-07 08:06:07 51°12.782 2°34.734 229.2 13.8 229 11.1
2004-06-07 08:06:11 51°12.771 2°34.716 228.7 13.9 228 11.3
2004-06-07 08:06:16 51°12.759 2°34.693 228.6 13.9 228 11.2
2004-06-07 08:06:20 51°12.748 2°34.674 228.6 13.9 229 11.5
2004-06-07 08:06:27 51°12.731 2°34.642 228.7 13.9 229 11.7
2004-06-07 08:06:31 51°12.721 2°34.624 228.9 13.9 229 11.5
2004-06-07 08:06:37 51°12.705 2°34.596 229.2 13.9 229 11.7
2004-06-07 08:06:42 51°12.693 2°34.573 229.3 13.9 229 11.7
2004-06-07 08:06:47 51°12.68 2°34.55 228.7 13.9 229 12.1
2004-06-07 08:06:52 51°12.667 2°34.527 228.3 13.9 228 12.3
2004-06-07 08:06:56 51°12.656 2°34.509 228.2 14 228 12.3
2004-06-07 08:07:02 51°12.641 2°34.481 228 14 228 11.9
2004-06-07 08:07:06 51°12.631 2°34.463 228.4 14 229 12.3
2004-06-07 08:07:12 51°12.615 2°34.435 228.8 14 229 12.9
2004-06-07 08:07:17 51°12.603 2°34.411 229.3 14 229 13
2004-06-07 08:07:22 51°12.59 2°34.388 229.4 14 229 12.7
2004-06-07 08:07:26 51°12.58 2°34.369 229.3 14.1 229 13.6
2004-06-07 08:07:32 51°12.565 2°34.341 229.3 14 229 13
2004-06-07 08:07:37 51°12.552 2°34.318 229.1 14 228 13.4
2004-06-07 08:07:42 51°12.539 2°34.295 228.6 14 228 13.7
2004-06-07 08:07:46 51°12.528 2°34.276 228.6 14 228 13.6
2004-06-07 08:07:52 51°12.513 2°34.248 228.8 14.1 229 13.6
2004-06-07 08:07:57 51°12.5 2°34.225 229 14.1 229 13.9
2004-06-07 08:08:02 51°12.488 2°34.202 229.2 14 229 13.8
2004-06-07 08:08:08 51°12.472 2°34.174 228.9 14 228 14.1
2004-06-07 08:08:12 51°12.462 2°34.155 228.7 14 227 14.2
2004-06-07 08:08:16 51°12.451 2°34.138 227.5 14 226 14.4
2004-06-07 08:08:22 51°12.434 2°34.112 225.9 14 225 14.2
2004-06-07 08:08:26 51°12.423 2°34.095 224.9 14 224 14.7
2004-06-07 08:08:32 51°12.406 2°34.069 224.2 14 224 14.8
2004-06-07 08:08:37 51°12.393 2°34.047 224 14 224 14.8
2004-06-07 08:08:42 51°12.378 2°34.026 223.6 14 224 15
2004-06-07 08:08:48 51°12.361 2°34 223.2 14 223 15.3
2004-06-07 08:08:52 51°12.35 2°33.983 223.2 14.1 224 15.2
2004-06-07 08:08:57 51°12.336 2°33.962 223.4 14 224 15.4
2004-06-07 08:09:02 51°12.322 2°33.94 223.6 14 224 15.6
2004-06-07 08:09:06 51°12.311 2°33.923 223.9 14 224 15.7
2004-06-07 08:09:12 51°12.295 2°33.897 224.3 14 225 15.7
2004-06-07 08:09:17 51°12.281 2°33.875 224.5 14 225 16
2004-06-07 08:09:22 51°12.267 2°33.854 224.6 14 225 16.1
2004-06-07 08:09:28 51°12.25 2°33.828 224.2 14 224 16.4
2004-06-07 08:09:32 51°12.239 2°33.811 223.7 14 224 16.5
2004-06-07 08:09:36 51°12.228 2°33.793 223.6 14 224 16.5
2004-06-07 08:09:42 51°12.211 2°33.768 223.6 14 224 16.8
2004-06-07 08:09:46 51°12.2 2°33.75 223.5 14.1 224 16.9
2004-06-07 08:09:52 51°12.183 2°33.724 223.9 14 224 17.1
2004-06-07 08:09:57 51°12.169 2°33.703 224.1 14 224 17.2
2004-06-07 08:10:02 51°12.155 2°33.681 224 14.1 225 17.4
2004-06-07 08:10:07 51°12.141 2°33.659 224.2 14.1 224 17.6
2004-06-07 08:10:12 51°12.127 2°33.638 224.1 14 224 17.6
2004-06-07 08:10:17 51°12.112 2°33.617 223.3 14 222 17.7
2004-06-07 08:10:22 51°12.098 2°33.596 222.3 14 223 17.8
2004-06-07 08:10:26 51°12.087 2°33.58 222.1 13.5 222 17.9
2004-06-07 08:10:32 51°12.071 2°33.558 221.9 12.4 222 17.9
2004-06-07 08:10:37 51°12.059 2°33.541 221.6 11.8 221 17.9
2004-06-07 08:10:42 51°12.048 2°33.525 220.8 11.3 222 18
2004-06-07 08:10:48 51°12.034 2°33.507 219.9 10.6 220 18.2
2004-06-07 08:10:52 51°12.026 2°33.496 219.2 10 219 18.3
2004-06-07 08:10:57 51°12.015 2°33.483 217.8 9.6 219 18.4
2004-06-07 08:11:02 51°12.006 2°33.47 217.2 9.3 219 18.4
2004-06-07 08:11:07 51°11.996 2°33.459 216.5 8.9 218 18.4
2004-06-07 08:11:12 51°11.987 2°33.447 215.9 8.7 218 18.3
2004-06-07 08:11:17 51°11.977 2°33.436 215.5 8.3 217 18.3
2004-06-07 08:11:22 51°11.969 2°33.425 215.2 8.1 218 18.3
2004-06-07 08:11:26 51°11.962 2°33.417 214.8 7.9 217 18.3
2004-06-07 08:11:32 51°11.952 2°33.405 214.5 7.6 217 18.3
2004-06-07 08:11:37 51°11.943 2°33.396 212.9 7.3 214 18.3
2004-06-07 08:11:42 51°11.935 2°33.388 210.3 7 213 18.3
2004-06-07 08:11:46 51°11.929 2°33.382 207.2 6.6 210 18.3
2004-06-07 08:11:52 51°11.92 2°33.375 204.1 6.4 208 18.3
2004-06-07 08:11:54 51°11.917 2°33.373 201 6.1 204 18.3
2004-06-07 08:12:02 51°11.905 2°33.365 198.1 5.8 203 18.2
2004-06-07 08:12:06 51°11.899 2°33.361 195.6 5.6 202 18.1
2004-06-07 08:12:12 51°11.891 2°33.356 193.4 5.2 201 18.1
2004-06-07 08:12:16 51°11.886 2°33.354 191.3 4.9 199 18.1
2004-06-07 08:12:22 51°11.879 2°33.35 189.2 4.6 199 18
2004-06-07 08:12:27 51°11.873 2°33.347 186.5 4.4 197 17.9
2004-06-07 08:12:32 51°11.868 2°33.345 184.3 4 198 17.9
2004-06-07 08:12:37 51°11.863 2°33.342 183.8 3.9 197 17.9
2004-06-07 08:12:42 51°11.858 2°33.339 184.1 3.7 199 17.9
2004-06-07 08:12:46 51°11.855 2°33.337 185.6 3.5 200 17.9
2004-06-07 08:12:52 51°11.849 2°33.333 187.3 3.5 204 17.8
2004-06-07 08:12:57 51°11.845 2°33.331 190 3.4 202 17.8
2004-06-07 08:13:02 51°11.841 2°33.327 191.7 3.4 204 17.7
2004-06-07 08:13:07 51°11.836 2°33.324 193 3.3 204 17.6
2004-06-07 08:13:12 51°11.832 2°33.321 194 3.3 205 17.6
2004-06-07 08:13:16 51°11.829 2°33.318 194.7 3.2 206 17.5
2004-06-07 08:13:21 51°11.825 2°33.315 195.6 3.2 207 17.5
2004-06-07 08:13:27 51°11.821 2°33.311 196.2 3.2 207 16.6
2004-06-07 08:13:31 51°11.818 2°33.308 197 3.1 208 16.4
2004-06-07 08:13:37 51°11.814 2°33.304 197.7 3.1 209 16.5
2004-06-07 08:13:42 51°11.81 2°33.301 198.1 3 210 16.7
2004-06-07 08:13:47 51°11.806 2°33.298 198.6 3 210 17
2004-06-07 08:13:52 51°11.803 2°33.294 199 2.9 212 17.2
2004-06-07 08:13:57 51°11.799 2°33.291 199.4 2.9 212 16.3
2004-06-07 08:14:02 51°11.796 2°33.287 199.9 2.9 213 16.1
2004-06-07 08:14:04 51°11.795 2°33.286 200.3 2.8 212 16.3
2004-06-07 08:14:12 51°11.79 2°33.28 200.6 2.8 213 16.5
2004-06-07 08:14:17 51°11.787 2°33.277 200.9 2.8 214 16.8
2004-06-07 08:14:22 51°11.784 2°33.273 201.2 2.7 213 16.9
2004-06-07 08:14:27 51°11.781 2°33.27 201.4 2.7 215 16.4
2004-06-07 08:14:32 51°11.778 2°33.267 201.6 2.7 215 16.2
2004-06-07 08:14:37 51°11.775 2°33.263 201.7 2.6 215 16.1
2004-06-07 08:14:42 51°11.772 2°33.26 201.8 2.6 216 16.3
2004-06-07 08:14:45 51°11.77 2°33.258 201.9 2.6 216 16.7
2004-06-07 08:14:52 51°11.766 2°33.253 201.9 2.7 216 17
2004-06-07 08:14:57 51°11.763 2°33.249 202 2.8 214 16.3
2004-06-07 08:15:00 51°11.76 2°33.247 202.2 3 214 16.2
2004-06-07 08:15:06 51°11.756 2°33.242 202.2 3.2 212 16.3
2004-06-07 08:15:12 51°11.751 2°33.237 202.2 3.4 212 16.7
2004-06-07 08:15:17 51°11.747 2°33.233 202.2 3.5 211 17
2004-06-07 08:15:22 51°11.743 2°33.229 202.2 3.6 211 15.9
2004-06-07 08:15:26 51°11.739 2°33.226 202.3 3.7 211 16
2004-06-07 08:15:32 51°11.734 2°33.22 202.3 3.8 211 16.4
2004-06-07 08:15:36 51°11.73 2°33.217 202.2 3.9 209 16.7
2004-06-07 08:15:42 51°11.724 2°33.212 202.2 4 210 15.6
2004-06-07 08:15:47 51°11.719 2°33.207 202.2 4.1 209 16
2004-06-07 08:15:52 51°11.714 2°33.202 202.4 4.2 210 16.1
2004-06-07 08:15:57 51°11.709 2°33.198 202.4 4.2 210 15.7
2004-06-07 08:16:02 51°11.704 2°33.193 202.5 4.3 209 16.1
2004-06-07 08:16:07 51°11.699 2°33.188 202.6 4.4 209 16.1
2004-06-07 08:16:12 51°11.693 2°33.183 202.8 4.4 210 15.4
2004-06-07 08:16:17 51°11.688 2°33.178 203 4.5 210 15.5
2004-06-07 08:16:20 51°11.685 2°33.175 203.1 4.5 210 15.9
2004-06-07 08:16:26 51°11.678 2°33.169 203.3 4.5 210 16.2
2004-06-07 08:16:32 51°11.672 2°33.163 203.4 4.6 210 15.7
2004-06-07 08:16:36 51°11.667 2°33.159 203.6 4.6 210 16.2
2004-06-07 08:16:42 51°11.66 2°33.153 203.7 4.6 210 15
2004-06-07 08:16:46 51°11.656 2°33.149 203.9 4.7 210 15.2
2004-06-07 08:16:52 51°11.649 2°33.143 204.1 4.7 210 15.7
2004-06-07 08:16:57 51°11.644 2°33.138 204.5 4.7 210 15.9